Terminal Aerodrome Forecast
Issued by NWS

Home | Current Version | Previous Version | Text Only | Print | Product List | Glossary On
Versions: 1 2 3 4 5 6 7 8 9 10 11 12 13 14 15 16 17 18 19 20 21 22 23 24 25 26 27 28 29 30 31 32 33
000
FTUS41 KCTP 261159
TAFUNV
TAF
KUNV 261159Z 2612/2712 27010G17KT P6SM OVC015
     FM261300 27010G17KT P6SM OVC020
     FM261400 29011G18KT P6SM FEW045
     FM262300 VRB03KT P6SM SCT250
     FM271100 12003KT P6SM -RA OVC025=

USA.gov is the U.S. government's official web portal to all federal, state and local government web resources and services.